Time;durP1;ratioP1;P1;durP2;ratioP2;P2;SDS_P1;SDS_P2;PMS_P1;PMS_P2;Temp;Humidity;BMP_temperature;BMP_pressure;BME280_temperature;BME280_humidity;BME280_pressure;Samples;Min_cycle;Max_cycle;Signal;HPM_P1;HPM_P2
2022/08/04 00:02:28;;;;;;;18.02;16.12;;;;;;;16.89;91.82;99282.76;4055174;86;21074;-83
2022/08/04 00:08:55;;;;;;;17.12;15.32;;;;;;;16.87;92.26;99278.23;4051718;87;21086;-83
2022/08/04 00:15:09;;;;;;;22.87;19.00;;;;;;;16.79;92.06;99280.87;4049188;87;21020;-83
2022/08/04 00:21:17;;;;;;;22.02;17.80;;;;;;;16.72;92.24;99278.19;4050026;86;21015;-82
2022/08/04 00:27:18;;;;;;;21.70;19.37;;;;;;;16.63;92.62;99276.47;4051211;86;21075;-83
2022/08/04 00:33:28;;;;;;;27.07;17.73;;;;;;;16.58;92.84;99278.90;4049085;87;21068;-83
2022/08/04 00:39:36;;;;;;;25.17;19.73;;;;;;;16.53;93.01;99280.12;4124840;85;21679;-83
2022/08/04 00:53:08;;;;;;;22.32;18.37;;;;;;;16.46;93.23;99284.93;4117964;85;21029;-83
2022/08/04 00:59:38;;;;;;;19.62;16.95;;;;;;;16.31;93.52;99282.83;3963094;88;21167;-83
2022/08/04 01:06:02;;;;;;;31.65;19.17;;;;;;;16.21;93.46;99280.92;4030006;85;21111;-82
2022/08/04 01:12:37;;;;;;;24.98;21.42;;;;;;;16.10;94.02;99282.20;4104070;85;21048;-82
2022/08/04 01:18:49;;;;;;;28.90;18.20;;;;;;;16.04;94.31;99279.06;4142963;85;21063;-83
2022/08/04 01:25:31;;;;;;;24.23;16.42;;;;;;;15.95;94.57;99280.11;4108095;85;21094;-83
2022/08/04 01:31:49;;;;;;;22.48;16.65;;;;;;;16.01;95.70;99275.73;4111441;85;21174;-82
2022/08/04 01:38:03;;;;;;;20.60;16.87;;;;;;;16.13;95.39;99278.63;4067367;85;21034;-82
2022/08/04 01:44:12;;;;;;;21.77;16.45;;;;;;;16.09;95.88;99273.12;4073436;86;21060;-83
2022/08/04 01:56:28;;;;;;;19.10;15.53;;;;;;;15.95;95.82;99284.25;4078023;86;20973;-82
2022/08/04 02:02:29;;;;;;;19.60;17.55;;;;;;;15.85;95.60;99284.32;4055193;86;21035;-83
2022/08/04 02:08:57;;;;;;;19.57;16.45;;;;;;;15.84;95.88;99278.59;4061943;86;21527;-83
2022/08/04 02:15:40;;;;;;;18.75;13.75;;;;;;;15.76;95.82;99275.67;4001388;86;36088;-83
2022/08/04 02:21:52;;;;;;;21.75;17.62;;;;;;;15.64;96.15;99273.55;3875688;90;21084;-83
2022/08/04 02:28:04;;;;;;;19.80;17.35;;;;;;;15.53;95.95;99270.05;3879269;90;21209;-82
2022/08/04 02:34:46;;;;;;;20.15;17.27;;;;;;;15.40;95.96;99260.67;3889312;89;22281;-83
2022/08/04 02:40:49;;;;;;;19.48;17.45;;;;;;;15.29;96.27;99254.96;3897819;90;21062;-83
2022/08/04 02:46:54;;;;;;;21.70;18.65;;;;;;;15.24;96.66;99258.12;3904226;90;21148;-83
2022/08/04 02:53:04;;;;;;;19.50;16.70;;;;;;;15.19;96.77;99258.56;3916237;90;21043;-82
2022/08/04 02:59:11;;;;;;;19.12;17.23;;;;;;;15.09;97.06;99257.41;3914813;90;21079;-83
2022/08/04 03:05:32;;;;;;;18.87;15.28;;;;;;;15.05;97.16;99264.12;3908840;90;21044;-83
2022/08/04 03:12:01;;;;;;;21.07;18.50;;;;;;;15.01;97.14;99257.81;3886562;90;21056;-82
2022/08/04 03:18:35;;;;;;;21.68;19.07;;;;;;;14.85;97.26;99256.86;3908161;90;21078;-82
2022/08/04 03:25:24;;;;;;;19.75;15.98;;;;;;;14.85;97.58;99261.58;3908410;90;21134;-83
2022/08/04 03:32:20;;;;;;;26.45;15.90;;;;;;;14.72;97.57;99255.69;3914868;90;21066;-82
2022/08/04 03:38:51;;;;;;;21.33;16.97;;;;;;;14.86;98.93;99254.91;3909606;90;21081;-82
2022/08/04 03:46:03;;;;;;;18.98;16.55;;;;;;;15.06;98.65;99260.17;3783921;92;21057;-82
2022/08/04 03:59:16;;;;;;;19.05;16.10;;;;;;;14.98;99.06;99264.91;3729978;93;21083;-82
2022/08/04 04:05:28;;;;;;;22.50;17.98;;;;;;;14.94;98.46;99266.11;3805448;92;21102;-82
2022/08/04 04:12:21;;;;;;;22.50;18.17;;;;;;;14.98;99.05;99274.56;3800945;92;21123;-82
2022/08/04 04:18:59;;;;;;;21.70;16.50;;;;;;;15.05;99.46;99275.14;3798342;92;21107;-82
2022/08/04 04:25:28;;;;;;;20.23;17.05;;;;;;;15.16;99.91;99282.19;3778605;92;21741;-81
2022/08/04 04:32:24;;;;;;;22.70;18.27;;;;;;;15.22;99.78;99279.21;3785786;92;21673;-83
2022/08/04 04:38:52;;;;;;;18.48;16.20;;;;;;;15.40;100.00;99275.05;3801418;92;21083;-82
2022/08/04 04:45:44;;;;;;;21.55;16.30;;;;;;;15.55;100.00;99273.20;3853711;91;21056;-82
2022/08/04 04:52:12;;;;;;;19.45;16.67;;;;;;;15.68;100.00;99279.06;3867245;91;21108;-83
2022/08/04 05:04:58;;;;;;;24.65;18.37;;;;;;;16.03;100.00;99288.55;3869456;91;21116;-82
2022/08/04 05:11:33;;;;;;;20.23;17.05;;;;;;;16.20;100.00;99292.37;3860219;91;21579;-82
2022/08/04 05:17:44;;;;;;;22.27;16.67;;;;;;;16.34;100.00;99285.36;3866371;91;21628;-83
2022/08/04 05:23:50;;;;;;;20.35;18.20;;;;;;;16.49;100.00;99289.64;3862380;91;21078;-83
2022/08/04 05:30:03;;;;;;;23.42;20.27;;;;;;;16.64;100.00;99295.23;3891805;90;21159;-83
2022/08/04 05:36:13;;;;;;;27.85;24.92;;;;;;;16.80;100.00;99294.11;3888314;91;21055;-83
2022/08/04 05:42:15;;;;;;;30.00;25.37;;;;;;;17.06;100.00;99298.98;3893948;89;21040;-83
2022/08/04 05:48:17;;;;;;;29.02;23.90;;;;;;;17.37;100.00;99299.84;3876378;90;21093;-84
2022/08/04 05:54:24;;;;;;;27.42;21.73;;;;;;;17.68;100.00;99298.71;3910783;89;21107;-84
2022/08/04 06:00:28;;;;;;;20.35;17.15;;;;;;;17.94;100.00;99297.96;3917534;90;21122;-84
2022/08/04 06:06:31;;;;;;;17.45;15.38;;;;;;;18.22;100.00;99302.51;3901339;90;22111;-84
2022/08/04 06:12:44;;;;;;;17.45;14.98;;;;;;;18.53;100.00;99291.55;3948726;90;21433;-84
2022/08/04 06:18:50;;;;;;;18.23;15.10;;;;;;;18.82;100.00;99300.79;3904811;90;21118;-84
2022/08/04 06:25:04;;;;;;;17.37;13.85;;;;;;;19.15;100.00;99301.98;3896938;90;21554;-85
2022/08/04 06:31:31;;;;;;;16.70;13.15;;;;;;;19.50;100.00;99304.09;3920056;90;21179;-84
2022/08/04 06:37:26;;;;;;;15.78;11.78;;;;;;;19.86;100.00;99313.27;3919083;90;21132;-84
2022/08/04 06:43:28;;;;;;;11.80;10.50;;;;;;;20.27;100.00;99311.39;3928053;89;21580;-85
2022/08/04 06:49:31;;;;;;;10.78;9.70;;;;;;;20.62;99.29;99309.78;3916820;90;21359;-85
2022/08/04 06:55:33;;;;;;;8.90;7.00;;;;;;;20.91;98.58;99305.06;3904610;90;21115;-85
2022/08/04 07:01:36;;;;;;;10.08;7.47;;;;;;;21.25;97.50;99304.02;3940707;90;21106;-84
2022/08/04 07:07:39;;;;;;;9.43;6.47;;;;;;;21.67;96.68;99296.62;3934851;90;21014;-86
2022/08/04 07:13:45;;;;;;;7.65;6.08;;;;;;;22.11;95.60;99296.37;3906979;90;21106;-85
2022/08/04 07:19:46;;;;;;;8.53;5.80;;;;;;;22.46;94.83;99289.66;3901543;90;21173;-85
2022/08/04 07:25:58;;;;;;;4.85;4.03;;;;;;;22.81;93.11;99292.73;3933581;90;21096;-85
2022/08/04 07:32:00;;;;;;;7.03;3.47;;;;;;;23.13;92.61;99297.98;3937686;90;21088;-85
2022/08/04 07:38:03;;;;;;;3.35;2.40;;;;;;;23.55;89.04;99290.75;3884159;90;21032;-83
2022/08/04 07:44:07;;;;;;;2.85;2.10;;;;;;;23.92;78.01;99291.14;3877948;90;21060;-85
2022/08/04 07:50:15;;;;;;;2.30;2.10;;;;;;;24.51;75.81;99288.81;3868859;90;21629;-84
2022/08/04 07:56:35;;;;;;;2.00;1.80;;;;;;;25.09;73.53;99291.60;3901895;90;21036;-86
2022/08/04 08:02:38;;;;;;;2.45;1.90;;;;;;;25.62;68.70;99289.31;3864670;90;21617;-83
2022/08/04 08:08:45;;;;;;;2.75;2.10;;;;;;;25.94;62.51;99283.00;3915503;90;21035;-85
2022/08/04 08:14:55;;;;;;;2.52;1.87;;;;;;;26.04;55.64;99290.95;3873537;90;21092;-85
2022/08/04 08:21:06;;;;;;;2.25;2.00;;;;;;;26.22;54.87;99290.76;3792794;92;21231;-86
2022/08/04 08:27:20;;;;;;;2.20;2.00;;;;;;;26.39;56.03;99287.73;3765262;93;21138;-84
2022/08/04 08:33:34;;;;;;;4.30;2.20;;;;;;;26.58;52.23;99277.94;3879845;90;21083;-85
2022/08/04 08:39:54;;;;;;;2.87;2.52;;;;;;;26.66;51.57;99281.37;3906673;90;21012;-85
2022/08/04 08:46:48;;;;;;;3.35;2.52;;;;;;;26.77;52.64;99280.83;3890161;90;21064;-86
2022/08/04 08:53:46;;;;;;;3.60;2.37;;;;;;;26.94;54.62;99283.38;3923826;90;21092;-86
2022/08/04 09:00:28;;;;;;;4.37;2.85;;;;;;;27.16;54.87;99284.63;3902505;90;21038;-85
2022/08/04 09:06:48;;;;;;;4.03;2.67;;;;;;;27.15;54.19;99281.68;3731580;93;21649;-85
2022/08/04 09:13:02;;;;;;;;;;;;;;;27.23;55.18;99287.09;3754720;90;21019;-85
2022/08/04 09:26:22;;;;;;;3.17;2.10;;;;;;;27.73;54.57;99278.84;3910421;90;21130;-85
2022/08/04 09:32:51;;;;;;;3.15;1.80;;;;;;;27.99;51.71;99280.62;3888889;90;21040;-86
2022/08/04 09:39:17;;;;;;;3.30;1.80;;;;;;;28.64;52.33;99283.61;3910448;90;21014;-85
2022/08/04 09:45:39;;;;;;;2.45;2.00;;;;;;;29.19;51.19;99282.98;3890328;90;21024;-88
2022/08/04 09:52:17;;;;;;;2.50;1.60;;;;;;;29.40;48.62;99278.86;3897575;90;21108;-86
2022/08/04 09:59:06;;;;;;;2.60;2.05;;;;;;;29.85;48.14;99272.44;3873175;89;21072;-87
2022/08/04 10:05:13;;;;;;;2.33;1.60;;;;;;;30.40;47.00;99268.70;3875242;90;21079;-87
2022/08/04 10:11:38;;;;;;;3.65;1.55;;;;;;;31.30;47.21;99261.66;3863643;91;21741;-87
2022/08/04 10:18:25;;;;;;;2.27;1.80;;;;;;;31.95;46.59;99263.73;3861016;90;21061;-87
2022/08/04 10:24:46;;;;;;;2.58;1.55;;;;;;;32.04;45.19;99266.96;3872397;90;21168;-86
2022/08/04 10:30:53;;;;;;;3.62;1.85;;;;;;;31.79;42.80;99260.98;3861662;91;21609;-84
2022/08/04 10:37:18;;;;;;;2.08;1.60;;;;;;;31.44;39.16;99254.23;3870316;91;21065;-86
2022/08/04 10:43:50;;;;;;;3.92;1.95;;;;;;;31.00;39.50;99251.21;3884595;89;21108;-87
2022/08/04 10:50:20;;;;;;;1.70;1.60;;;;;;;31.16;37.25;99247.69;3940750;90;21031;-86
2022/08/04 10:56:30;;;;;;;3.02;2.15;;;;;;;31.26;38.41;99249.02;3953075;89;21106;-86
2022/08/04 11:02:46;;;;;;;2.25;1.90;;;;;;;31.19;36.09;99252.32;3919517;90;21115;-88
2022/08/04 11:08:51;;;;;;;;;;;;;;;31.38;38.78;99251.41;3890146;90;22136;-86
2022/08/04 11:15:13;;;;;;;3.58;2.30;;;;;;;32.06;39.47;99246.74;3916253;90;20543;-87
2022/08/04 11:21:21;;;;;;;4.05;2.00;;;;;;;32.45;39.50;99241.09;3930115;90;21099;-86
2022/08/04 11:27:52;;;;;;;3.92;2.08;;;;;;;32.95;39.24;99241.09;3907433;90;21166;-86
2022/08/04 11:34:22;;;;;;;3.65;2.08;;;;;;;33.29;38.98;99238.25;3912045;90;21003;-88
2022/08/04 11:40:29;;;;;;;2.35;2.15;;;;;;;33.50;39.16;99235.06;3914056;90;21111;-88
2022/08/04 11:46:46;;;;;;;3.40;2.17;;;;;;;33.43;38.73;99232.77;3859925;90;21069;-88
2022/08/04 11:52:48;;;;;;;2.45;2.22;;;;;;;33.49;38.21;99238.55;3855291;90;21619;-86
2022/08/04 11:58:50;;;;;;;2.95;2.60;;;;;;;33.06;34.00;99233.95;3849749;90;21647;-88
2022/08/04 12:05:08;;;;;;;2.42;2.22;;;;;;;32.13;35.40;99225.00;3851788;90;21059;-87
2022/08/04 12:11:40;;;;;;;3.67;2.17;;;;;;;32.02;36.13;99219.34;3866704;90;21548;-89
2022/08/04 12:18:08;;;;;;;3.90;2.20;;;;;;;31.50;36.39;99214.77;3771526;93;21036;-89
2022/08/04 12:24:25;;;;;;;3.15;2.00;;;;;;;30.99;37.15;99198.16;3755803;92;21545;-88
2022/08/04 12:30:31;;;;;;;3.10;1.87;;;;;;;30.60;38.29;99201.42;3767183;93;21149;-87
2022/08/04 12:36:54;;;;;;;10.25;3.58;;;;;;;30.47;38.83;99206.73;3851395;90;21468;-86
2022/08/04 12:43:18;;;;;;;4.42;2.90;;;;;;;30.22;39.48;99204.78;3765249;93;21141;-87
2022/08/04 12:49:38;;;;;;;3.55;2.67;;;;;;;30.01;38.73;99195.61;3875021;91;21076;-89
2022/08/04 13:02:34;;;;;;;2.30;2.10;;;;;;;29.27;40.65;99184.66;3843043;91;21062;-88
2022/08/04 13:08:44;;;;;;;3.52;2.60;;;;;;;29.15;41.03;99181.56;3778540;93;22285;-88
2022/08/04 13:14:54;;;;;;;2.37;2.17;;;;;;;29.12;39.20;99169.24;3789960;93;21678;-87
2022/08/04 13:21:11;;;;;;;2.60;2.40;;;;;;;28.94;40.52;99171.70;3829689;93;21045;-87
2022/08/04 13:27:15;;;;;;;2.77;2.20;;;;;;;28.85;41.23;99168.25;3759007;93;21052;-88
2022/08/04 13:33:37;;;;;;;3.25;2.27;;;;;;;28.76;42.07;99159.33;3825250;93;21109;-87
2022/08/04 13:39:45;;;;;;;4.40;3.00;;;;;;;28.67;42.60;99161.52;3790958;91;21137;-89
2022/08/04 13:46:04;;;;;;;3.75;2.47;;;;;;;28.64;41.68;99156.88;3749171;93;21062;-87
2022/08/04 13:52:08;;;;;;;2.90;2.60;;;;;;;28.54;41.95;99160.45;3754799;93;21624;-88
2022/08/04 13:58:31;;;;;;;5.60;2.40;;;;;;;28.47;42.52;99153.04;3853564;91;21129;-88
2022/08/04 14:04:41;;;;;;;2.87;2.40;;;;;;;28.35;42.71;99145.69;3912913;91;21020;-88
2022/08/04 14:10:44;;;;;;;3.15;2.10;;;;;;;28.29;42.86;99142.81;3877996;91;21105;-88
2022/08/04 14:17:04;;;;;;;4.20;2.55;;;;;;;28.26;42.94;99150.05;3860738;91;21113;-88
2022/08/04 14:23:05;;;;;;;7.33;2.90;;;;;;;28.18;43.33;99141.25;3878524;91;21468;-88
2022/08/04 14:29:15;;;;;;;3.80;2.55;;;;;;;28.08;43.49;99143.28;3882301;91;21530;-89
2022/08/04 14:35:17;;;;;;;4.35;2.70;;;;;;;28.01;43.50;99137.42;3876149;91;21108;-89
2022/08/04 14:41:26;;;;;;;5.87;2.47;;;;;;;27.94;43.75;99129.38;3866601;91;21038;-88
2022/08/04 14:47:43;;;;;;;6.55;2.90;;;;;;;27.89;43.84;99129.30;3874441;90;21099;-89
2022/08/04 14:53:47;;;;;;;2.65;2.12;;;;;;;27.80;44.11;99118.14;3871043;91;21126;-89
2022/08/04 14:59:49;;;;;;;3.37;2.90;;;;;;;27.73;44.59;99118.53;3882782;91;21044;-88
2022/08/04 15:05:53;;;;;;;4.67;2.77;;;;;;;27.64;44.97;99127.22;3887864;91;21731;-90
2022/08/04 15:11:55;;;;;;;4.03;2.60;;;;;;;27.59;45.13;99118.06;3868459;91;21132;-90
2022/08/04 15:17:57;;;;;;;2.90;2.70;;;;;;;27.56;45.04;99123.25;3870901;91;21085;-90
2022/08/04 15:23:58;;;;;;;3.72;2.37;;;;;;;27.50;45.03;99122.39;3858305;91;21038;-88
2022/08/04 15:30:07;;;;;;;4.37;2.27;;;;;;;27.40;45.19;99120.96;3872698;91;21475;-89
2022/08/04 15:36:32;;;;;;;5.22;2.45;;;;;;;27.34;44.85;99117.91;3874076;91;21522;-89
2022/08/04 15:42:49;;;;;;;3.27;2.33;;;;;;;27.30;44.87;99118.71;3861512;91;21784;-89
2022/08/04 15:48:50;;;;;;;2.92;2.47;;;;;;;27.25;45.11;99113.77;3855411;90;21104;-90
2022/08/04 15:55:14;;;;;;;3.50;2.35;;;;;;;27.15;45.26;99110.89;3869460;90;21127;-89
2022/08/04 16:01:17;;;;;;;3.25;2.15;;;;;;;27.02;45.46;99109.77;3790826;92;21077;-88
2022/08/04 16:07:18;;;;;;;5.17;2.35;;;;;;;26.95;45.47;99110.78;3894106;90;21451;-90
2022/08/04 16:13:23;;;;;;;3.52;2.42;;;;;;;26.88;45.51;99110.52;3893215;90;21184;-89
2022/08/04 16:19:55;;;;;;;4.25;2.77;;;;;;;26.79;45.57;99103.59;3885121;90;22241;-89
2022/08/04 16:25:56;;;;;;;4.03;2.15;;;;;;;26.70;45.74;99098.03;3896214;90;21055;-89
2022/08/04 16:32:11;;;;;;;2.58;2.08;;;;;;;26.57;46.01;99100.93;3891114;90;21052;-90
2022/08/04 16:38:15;;;;;;;3.25;2.42;;;;;;;26.49;45.85;99101.94;3899323;90;21039;-90
2022/08/04 16:44:33;;;;;;;3.15;2.40;;;;;;;26.37;46.09;99092.36;3891221;90;21164;-89
2022/08/04 16:50:51;;;;;;;3.98;2.45;;;;;;;26.24;45.94;99094.63;3919067;90;21130;-90
2022/08/04 16:56:54;;;;;;;3.45;1.80;;;;;;;26.09;46.26;99100.95;3900268;88;21112;-89
2022/08/04 17:02:56;;;;;;;2.83;2.10;;;;;;;25.60;46.77;99078.76;3917729;90;21774;-90
2022/08/04 17:09:11;;;;;;;2.65;2.42;;;;;;;25.60;46.77;99078.76;3912332;90;21094;-90
2022/08/04 17:15:20;;;;;;;2.72;2.22;;;;;;;25.58;47.32;99100.88;3906466;90;21084;-89
2022/08/04 17:21:30;;;;;;;4.65;2.50;;;;;;;25.40;47.73;99100.95;3909095;88;21612;-88
2022/08/04 17:27:31;;;;;;;6.37;3.10;;;;;;;25.25;48.04;99102.20;3913952;90;21027;-89
2022/08/04 17:33:33;;;;;;;7.75;3.87;;;;;;;25.11;48.47;99104.25;3914442;90;21091;-89
2022/08/04 17:39:34;;;;;;;3.60;2.80;;;;;;;25.01;48.91;99108.30;3908024;90;21110;-89
2022/08/04 17:45:38;;;;;;;5.70;3.30;;;;;;;24.89;49.34;99103.66;3919108;89;21019;-89
2022/08/04 17:51:46;;;;;;;3.12;2.33;;;;;;;24.79;49.78;99099.95;3893214;90;21087;-90
2022/08/04 17:57:49;;;;;;;4.28;2.77;;;;;;;24.65;50.21;99098.51;3915140;90;21089;-88
2022/08/04 18:03:50;;;;;;;5.65;3.35;;;;;;;24.49;50.72;99099.59;3798570;90;10000156;-89
2022/08/04 18:09:55;;;;;;;4.95;2.87;;;;;;;24.34;51.15;99105.66;3899837;90;21058;-90
2022/08/04 18:16:04;;;;;;;3.27;2.98;;;;;;;24.18;51.56;99106.58;3905651;88;21041;-89
2022/08/04 18:22:05;;;;;;;3.85;2.92;;;;;;;24.00;51.98;99107.31;3910311;90;21155;-89
2022/08/04 18:28:08;;;;;;;7.90;3.33;;;;;;;23.83;52.36;99108.00;3913376;90;21127;-89
2022/08/04 18:34:09;;;;;;;7.30;3.62;;;;;;;23.65;52.76;99121.92;3907224;90;21008;-89
2022/08/04 18:40:12;;;;;;;5.37;4.37;;;;;;;23.47;53.26;99119.03;3890431;90;21179;-89
2022/08/04 18:46:13;;;;;;;5.85;4.97;;;;;;;23.34;53.68;99125.31;3901500;89;21075;-89
2022/08/04 18:52:14;;;;;;;7.28;5.40;;;;;;;23.23;54.14;99127.09;3871262;91;22059;-88
2022/08/04 18:58:16;;;;;;;9.08;4.70;;;;;;;23.05;54.47;99136.12;3876913;91;21020;-89
2022/08/04 19:04:42;;;;;;;6.95;4.30;;;;;;;22.84;55.79;99134.73;3863461;90;21700;-88
2022/08/04 19:10:43;;;;;;;7.87;4.33;;;;;;;22.63;58.23;99140.45;3874993;90;21124;-88
2022/08/04 19:16:47;;;;;;;9.03;4.60;;;;;;;22.35;58.60;99140.01;3874657;90;21664;-88
2022/08/04 19:22:48;;;;;;;6.08;5.03;;;;;;;22.11;59.64;99137.45;3874491;90;21071;-88
2022/08/04 19:28:51;;;;;;;11.70;5.03;;;;;;;21.82;60.53;99140.98;3733477;93;21126;-88
2022/08/04 19:34:52;;;;;;;8.18;4.80;;;;;;;21.55;60.94;99139.21;3876214;90;21092;-88
2022/08/04 19:40:54;;;;;;;9.25;4.83;;;;;;;21.29;62.47;99138.42;3869031;91;21008;-88
2022/08/04 19:46:57;;;;;;;5.92;4.67;;;;;;;21.05;62.59;99136.34;3872397;90;21061;-88
2022/08/04 19:52:59;;;;;;;6.92;5.12;;;;;;;20.78;63.41;99133.13;3859084;91;21061;-89
2022/08/04 19:59:00;;;;;;;6.95;5.65;;;;;;;20.54;63.93;99131.80;3866550;91;21096;-88
2022/08/04 20:05:01;;;;;;;10.03;6.37;;;;;;;20.38;64.48;99132.61;3754717;91;9999725;-88
2022/08/04 20:11:02;;;;;;;15.80;6.20;;;;;;;20.28;65.47;99135.05;3861259;91;21077;-89
2022/08/04 20:17:04;;;;;;;9.60;6.65;;;;;;;20.18;65.97;99135.52;3860760;91;21115;-88
2022/08/04 20:23:05;;;;;;;11.53;5.97;;;;;;;20.05;66.63;99132.43;3859274;91;21024;-88
2022/08/04 20:29:17;;;;;;;9.50;6.40;;;;;;;19.89;67.45;99136.59;3888796;91;21047;-88
2022/08/04 20:35:24;;;;;;;8.48;5.97;;;;;;;19.71;67.71;99137.63;3896976;91;21056;-87
2022/08/04 20:41:39;;;;;;;11.55;7.53;;;;;;;19.53;69.05;99143.58;3776434;92;21090;-87
2022/08/04 20:47:41;;;;;;;9.88;7.60;;;;;;;19.39;69.63;99140.33;3882165;90;21495;-87
2022/08/04 20:53:48;;;;;;;8.78;6.72;;;;;;;19.24;69.49;99139.05;3882293;91;21791;-88
2022/08/04 20:59:49;;;;;;;15.28;7.75;;;;;;;19.12;70.74;99134.93;3854934;91;21563;-88
2022/08/04 21:05:57;;;;;;;10.75;7.80;;;;;;;19.04;71.30;99137.70;3855637;91;21013;-88
2022/08/04 21:11:59;;;;;;;11.95;7.20;;;;;;;18.97;71.12;99141.99;3865684;91;21124;-87
2022/08/04 21:18:00;;;;;;;11.25;6.60;;;;;;;18.91;72.21;99131.81;3868072;91;21700;-88
2022/08/04 21:24:01;;;;;;;10.13;6.75;;;;;;;18.86;73.10;99133.09;3866992;91;21098;-88
2022/08/04 21:30:10;;;;;;;11.00;7.72;;;;;;;18.77;72.98;99127.34;3890990;91;21781;-88
2022/08/04 21:36:25;;;;;;;11.45;8.18;;;;;;;18.70;72.91;99132.42;3855071;91;21680;-87
2022/08/04 21:42:26;;;;;;;12.03;8.75;;;;;;;18.58;73.29;99121.97;3861652;91;21121;-87
2022/08/04 21:48:28;;;;;;;12.93;8.58;;;;;;;18.45;73.71;99127.16;3866957;90;21088;-87
2022/08/04 22:01:32;;;;;;;13.22;8.35;;;;;;;18.36;75.18;99132.44;3848417;91;21069;-88
2022/08/04 22:15:13;;;;;;;12.00;8.58;;;;;;;18.37;76.02;99124.33;3858832;91;21087;-88
2022/08/04 22:21:24;;;;;;;11.95;8.15;;;;;;;18.21;76.69;99123.59;3863046;91;21182;-88
2022/08/04 22:33:53;;;;;;;14.98;7.70;;;;;;;18.00;77.31;99119.02;3857013;91;21667;-87
2022/08/04 22:39:54;;;;;;;8.85;7.05;;;;;;;17.83;77.56;99119.50;3851721;91;21156;-87
2022/08/04 22:46:28;;;;;;;11.38;8.05;;;;;;;17.71;78.22;99117.92;3853945;91;21202;-87
2022/08/04 22:53:27;;;;;;;14.87;8.75;;;;;;;17.55;78.60;99113.02;3888306;90;21121;-87
2022/08/04 22:59:44;;;;;;;20.68;10.35;;;;;;;17.35;79.00;99105.19;3940157;90;21073;-88
2022/08/04 23:06:08;;;;;;;19.07;12.15;;;;;;;17.19;79.14;99107.78;3922378;90;21028;-87
2022/08/04 23:12:37;;;;;;;12.35;7.45;;;;;;;17.08;79.67;99104.38;3911371;90;21063;-87
2022/08/04 23:25:07;;;;;;;19.95;12.85;;;;;;;16.92;80.59;99095.88;3932383;90;21458;-87
2022/08/04 23:31:13;;;;;;;22.58;12.82;;;;;;;16.81;81.26;99095.23;3923353;90;21144;-87
2022/08/04 23:37:38;;;;;;;21.20;13.10;;;;;;;16.71;81.82;99083.72;3900786;90;21128;-87
2022/08/04 23:43:39;;;;;;;17.30;11.68;;;;;;;16.61;82.31;99078.50;3944866;90;20998;-88
2022/08/04 23:49:40;;;;;;;14.60;10.10;;;;;;;16.53;82.76;99072.87;3922518;90;21074;-88
2022/08/04 23:55:41;;;;;;;18.48;10.15;;;;;;;16.47;83.18;99075.11;3925697;90;21123;-87
